Time;durP1;ratioP1;P1;durP2;ratioP2;P2;SDS_P1;SDS_P2;PMS_P1;PMS_P2;Temp;Humidity;BMP_temperature;BMP_pressure;BME280_temperature;BME280_humidity;BME280_pressure;Samples;Min_cycle;Max_cycle;Signal;HPM_P1;HPM_P2
2023/01/05 00:01:00;;;;;;;;;;;;;;;11.71;64.34;99743.16;5067695;28;19926;-41
2023/01/05 00:03:25;;;;;;;;;;;;;;;11.76;64.18;99744.78;5065792;28;20034;-41
2023/01/05 00:05:50;;;;;;;;;;;;;;;11.33;63.81;99767.28;5065295;28;19955;-41
2023/01/05 00:08:15;;;;;;;;;;;;;;;11.22;61.16;99785.59;5064258;28;20444;-41
2023/01/05 00:24:27;;;;;;;;;;;;;;;11.40;54.92;99889.22;5066155;28;19931;-41
2023/01/05 00:26:52;;;;;;;;;;;;;;;11.38;56.09;99884.09;5065887;28;19920;-41
2023/01/05 00:29:18;;;;;;;;;;;;;;;11.20;56.47;99880.16;5065029;28;20029;-42
2023/01/05 00:31:43;;;;;;;;;;;;;;;11.56;54.26;99903.47;5064524;28;19917;-41
2023/01/05 00:34:08;;;;;;;;;;;;;;;11.44;55.66;99888.28;5062650;28;20028;-41
2023/01/05 00:36:33;;;;;;;;;;;;;;;11.26;57.53;99874.88;5065142;28;19928;-41
2023/01/05 00:38:58;;;;;;;;;;;;;;;11.39;56.33;99879.78;5064841;28;19990;-41
2023/01/05 00:41:24;;;;;;;;;;;;;;;11.45;56.64;99879.66;5065449;28;19950;-41
2023/01/05 00:43:49;;;;;;;;;;;;;;;11.52;57.22;99870.91;5063691;28;19916;-41
2023/01/05 00:46:14;;;;;;;;;;;;;;;11.29;58.32;99848.19;5063670;28;20014;-41
2023/01/05 00:48:39;;;;;;;;;;;;;;;11.44;56.15;99862.47;5063818;28;20006;-41
2023/01/05 00:51:05;;;;;;;;;;;;;;;11.60;55.17;99874.16;5065363;28;20024;-41
2023/01/05 00:53:30;;;;;;;;;;;;;;;11.41;56.57;99857.41;5066900;28;20020;-41
2023/01/05 00:55:58;;;;;;;;;;;;;;;11.39;55.59;99877.22;5069170;28;19981;-41
2023/01/05 00:58:23;;;;;;;;;;;;;;;11.37;55.89;99877.22;5068136;28;19927;-41
2023/01/05 01:00:48;;;;;;;;;;;;;;;11.44;56.36;99886.53;5068012;28;19920;-41
2023/01/05 01:03:13;;;;;;;;;;;;;;;11.06;56.96;99880.47;5070077;28;19920;-41
2023/01/05 01:05:39;;;;;;;;;;;;;;;11.32;56.54;99878.22;5068945;28;19977;-41
2023/01/05 01:08:04;;;;;;;;;;;;;;;11.40;58.10;99873.72;5068412;28;19920;-41
2023/01/05 01:10:29;;;;;;;;;;;;;;;11.01;58.89;99868.53;5068645;28;19916;-40
2023/01/05 01:12:54;;;;;;;;;;;;;;;11.02;57.51;99872.81;5070098;28;19916;-40
2023/01/05 01:15:20;;;;;;;;;;;;;;;11.51;55.22;99900.16;5069204;28;19923;-40
2023/01/05 01:17:45;;;;;;;;;;;;;;;11.35;57.19;99878.16;5068549;28;19920;-41
2023/01/05 01:20:10;;;;;;;;;;;;;;;11.47;58.59;99865.84;5068504;28;19916;-41
2023/01/05 01:22:36;;;;;;;;;;;;;;;11.57;58.87;99855.34;5068718;28;19978;-41
2023/01/05 01:25:01;;;;;;;;;;;;;;;11.29;59.70;99838.72;5068601;28;19923;-41
2023/01/05 01:27:26;;;;;;;;;;;;;;;11.36;60.55;99843.72;5068293;28;19920;-41
2023/01/05 01:29:51;;;;;;;;;;;;;;;11.33;60.95;99842.06;5068565;28;19916;-41
2023/01/05 01:32:16;;;;;;;;;;;;;;;11.47;61.42;99841.75;5068252;28;19923;-40
2023/01/05 01:34:42;;;;;;;;;;;;;;;11.15;63.60;99830.41;5068951;28;19937;-41
2023/01/05 01:37:07;;;;;;;;;;;;;;;11.20;62.07;99833.75;5067785;28;20896;-41
2023/01/05 01:39:32;;;;;;;;;;;;;;;11.13;63.02;99829.63;5067811;28;20371;-41
2023/01/05 01:41:57;;;;;;;;;;;;;;;11.05;62.07;99836.66;5067469;28;19916;-41
2023/01/05 01:44:41;;;;;;;;;;;;;;;11.11;61.59;99844.28;5068058;28;20361;-41
2023/01/05 01:47:08;;;;;;;;;;;;;;;10.97;62.38;99851.41;5066506;28;19997;-41
2023/01/05 01:49:33;;;;;;;;;;;;;;;11.13;62.96;99845.09;5064474;28;19920;-41
2023/01/05 01:51:58;;;;;;;;;;;;;;;11.27;61.52;99849.97;5066513;28;19922;-41
2023/01/05 01:54:23;;;;;;;;;;;;;;;11.38;61.10;99862.59;5067402;28;19916;-41
2023/01/05 01:56:51;;;;;;;;;;;;;;;11.23;62.36;99844.00;5064937;28;19920;-41
2023/01/05 01:59:16;;;;;;;;;;;;;;;11.27;62.02;99847.38;5064963;28;20836;-41
2023/01/05 02:01:41;;;;;;;;;;;;;;;11.05;62.91;99828.91;5067597;28;19928;-41
2023/01/05 02:04:06;;;;;;;;;;;;;;;11.42;60.11;99869.41;5064086;28;19916;-41
2023/01/05 02:06:32;;;;;;;;;;;;;;;11.26;62.23;99856.81;5064574;28;19927;-41
2023/01/05 02:08:57;;;;;;;;;;;;;;;11.22;63.14;99849.19;5064582;28;20762;-41
2023/01/05 02:11:34;;;;;;;;;;;;;;;10.75;63.98;99844.13;5064511;28;19963;-41
2023/01/05 02:14:05;;;;;;;;;;;;;;;11.03;61.99;99865.03;5068947;28;19977;-40
2023/01/05 02:16:30;;;;;;;;;;;;;;;11.19;60.85;99868.16;5065943;28;20830;-41
2023/01/05 02:18:58;;;;;;;;;;;;;;;11.40;60.23;99881.47;5065785;28;19927;-41
2023/01/05 02:21:28;;;;;;;;;;;;;;;11.12;62.50;99861.41;5064440;28;20018;-41
2023/01/05 02:24:16;;;;;;;;;;;;;;;11.33;61.72;99851.53;5065504;28;20900;-41
2023/01/05 02:26:49;;;;;;;;;;;;;;;11.13;62.91;99845.09;5065994;28;19916;-41
2023/01/05 02:29:35;;;;;;;;;;;;;;;11.13;61.85;99857.97;5066195;28;19913;-41
2023/01/05 02:32:03;;;;;;;;;;;;;;;11.23;62.11;99846.59;5049520;28;20722;-41
2023/01/05 02:34:49;;;;;;;;;;;;;;;11.19;61.68;99842.38;5063800;28;19912;-41
2023/01/05 02:37:35;;;;;;;;;;;;;;;11.46;60.76;99850.41;5048888;28;20011;-41
2023/01/05 02:40:12;;;;;;;;;;;;;;;11.17;62.67;99830.38;5064130;28;20601;-41
2023/01/05 02:42:38;;;;;;;;;;;;;;;11.12;62.14;99830.50;5064859;28;19916;-41
2023/01/05 02:45:06;;;;;;;;;;;;;;;11.10;62.39;99838.25;4998503;28;1870280;-41
2023/01/05 02:47:34;;;;;;;;;;;;;;;11.29;62.12;99846.47;5065525;28;19939;-41
2023/01/05 02:49:59;;;;;;;;;;;;;;;11.29;63.27;99840.47;5066840;28;19920;-41
2023/01/05 02:52:24;;;;;;;;;;;;;;;11.37;63.22;99814.50;5065410;28;19978;-41
2023/01/05 02:54:51;;;;;;;;;;;;;;;11.13;64.17;99814.16;5066588;28;19970;-41
2023/01/05 02:57:17;;;;;;;;;;;;;;;11.09;65.47;99812.50;5066233;28;19924;-41
2023/01/05 02:59:43;;;;;;;;;;;;;;;11.20;66.40;99796.78;5063783;28;19997;-40
2023/01/05 03:02:10;;;;;;;;;;;;;;;11.28;65.75;99808.66;5066671;28;19919;-41
2023/01/05 03:04:40;;;;;;;;;;;;;;;11.37;66.09;99804.19;5064727;28;19983;-41
2023/01/05 03:07:06;;;;;;;;;;;;;;;11.21;67.36;99793.34;5065304;28;19917;-40
2023/01/05 03:09:37;;;;;;;;;;;;;;;10.97;67.46;99799.88;5063354;28;19916;-40
2023/01/05 03:15:06;;;;;;;;;;;;;;;11.15;65.49;99819.25;5065463;28;19990;-41
2023/01/05 03:17:32;;;;;;;;;;;;;;;11.01;65.64;99822.13;5064487;28;19925;-40
2023/01/05 03:19:57;;;;;;;;;;;;;;;10.86;64.84;99821.56;5066156;28;19924;-40
2023/01/05 03:36:38;;;;;;;;;;;;;;;10.99;63.97;99860.84;5057348;28;20515;-41
2023/01/05 03:39:03;;;;;;;;;;;;;;;10.72;65.31;99844.19;5064332;28;20383;-40
2023/01/05 03:41:28;;;;;;;;;;;;;;;10.86;63.53;99855.06;5063449;28;19924;-40
2023/01/05 03:43:54;;;;;;;;;;;;;;;10.98;63.63;99859.13;5061799;28;19928;-40
2023/01/05 03:46:19;;;;;;;;;;;;;;;11.07;64.63;99850.38;5062886;28;20443;-40
2023/01/05 03:48:45;;;;;;;;;;;;;;;11.00;64.84;99846.22;5065072;28;19988;-40
2023/01/05 03:51:10;;;;;;;;;;;;;;;11.05;65.75;99837.50;5063922;28;19915;-40
2023/01/05 03:53:35;;;;;;;;;;;;;;;11.14;66.34;99833.88;5064019;28;19927;-40
2023/01/05 03:56:01;;;;;;;;;;;;;;;11.08;66.70;99824.56;5067552;28;19924;-40
2023/01/05 03:58:26;;;;;;;;;;;;;;;10.86;68.08;99816.41;5064067;28;19926;-40
2023/01/05 04:00:51;;;;;;;;;;;;;;;10.89;66.61;99824.06;5071731;28;19924;-40
2023/01/05 04:03:16;;;;;;;;;;;;;;;10.94;64.29;99846.31;5065208;28;19927;-40
2023/01/05 04:05:42;;;;;;;;;;;;;;;11.10;60.90;99868.34;5065739;28;19916;-40
2023/01/05 04:08:07;;;;;;;;;;;;;;;10.75;60.85;99875.03;5064704;28;19916;-40
2023/01/05 04:10:32;;;;;;;;;;;;;;;10.91;58.29;99908.25;5063633;28;20467;-40
2023/01/05 04:12:57;;;;;;;;;;;;;;;10.83;56.83;99922.13;5064228;28;20412;-40
2023/01/05 04:15:22;;;;;;;;;;;;;;;10.64;57.52;99934.47;5065000;28;19916;-40
2023/01/05 04:17:48;;;;;;;;;;;;;;;10.75;56.31;99947.16;5065192;28;19916;-40
2023/01/05 04:20:13;;;;;;;;;;;;;;;10.61;56.32;99959.44;5065976;28;20378;-40
2023/01/05 04:22:38;;;;;;;;;;;;;;;10.97;53.48;99980.28;5064629;28;20359;-40
2023/01/05 04:25:04;;;;;;;;;;;;;;;10.80;53.77;99980.59;5066126;28;19916;-40
2023/01/05 04:27:29;;;;;;;;;;;;;;;10.92;52.22;100008.72;5063938;28;19916;-40
2023/01/05 04:29:54;;;;;;;;;;;;;;;10.78;51.59;100015.84;5064861;28;19973;-41
2023/01/05 04:32:19;;;;;;;;;;;;;;;10.73;51.58;100033.09;5056582;28;19924;-41
2023/01/05 04:34:45;;;;;;;;;;;;;;;10.83;51.20;100050.97;5065466;28;19924;-41
2023/01/05 04:37:10;;;;;;;;;;;;;;;10.49;52.96;100053.22;5065933;28;19985;-41
2023/01/05 04:39:35;;;;;;;;;;;;;;;10.50;52.04;100092.69;5065110;28;19924;-41
2023/01/05 04:42:00;;;;;;;;;;;;;;;10.48;54.40;100121.03;5064634;28;19923;-41
2023/01/05 04:44:25;;;;;;;;;;;;;;;10.39;55.45;100142.59;5065158;28;19995;-41
2023/01/05 04:46:51;;;;;;;;;;;;;;;10.61;55.29;100193.84;5055789;28;19920;-41
2023/01/05 04:49:16;;;;;;;;;;;;;;;10.73;56.64;100206.56;5064494;28;19920;-41
2023/01/05 04:51:41;;;;;;;;;;;;;;;10.64;56.94;100224.72;5065111;28;20387;-42
2023/01/05 04:54:06;;;;;;;;;;;;;;;10.61;57.73;100229.91;5064929;28;20236;-41
2023/01/05 04:56:32;;;;;;;;;;;;;;;10.51;58.41;100238.63;5065761;28;19924;-42
2023/01/05 04:58:57;;;;;;;;;;;;;;;10.57;58.77;100254.00;5062076;28;19969;-41
2023/01/05 05:01:22;;;;;;;;;;;;;;;10.52;59.58;100245.50;5066431;28;19976;-42
2023/01/05 05:03:47;;;;;;;;;;;;;;;10.38;60.49;100259.38;5063809;28;19971;-41
2023/01/05 05:06:13;;;;;;;;;;;;;;;10.58;60.91;100284.03;5067211;28;19920;-41
2023/01/05 05:08:38;;;;;;;;;;;;;;;10.60;61.53;100285.72;5065755;28;19920;-42
2023/01/05 05:11:03;;;;;;;;;;;;;;;10.45;62.53;100273.88;5067415;28;20030;-42
2023/01/05 05:13:30;;;;;;;;;;;;;;;10.51;62.64;100290.13;5066335;28;19964;-42
2023/01/05 05:15:55;;;;;;;;;;;;;;;10.70;62.39;100307.09;5056640;28;20353;-42
2023/01/05 05:18:21;;;;;;;;;;;;;;;10.45;63.37;100302.22;5067841;28;19919;-42
2023/01/05 05:20:47;;;;;;;;;;;;;;;10.57;63.24;100320.97;5066146;28;20614;-42
2023/01/05 05:23:13;;;;;;;;;;;;;;;10.72;62.70;100325.97;5063342;28;21038;-42
2023/01/05 05:25:38;;;;;;;;;;;;;;;10.65;63.64;100319.16;5063859;28;19916;-42
2023/01/05 05:28:03;;;;;;;;;;;;;;;10.85;63.35;100326.66;5064762;28;20102;-42
2023/01/05 05:30:28;;;;;;;;;;;;;;;10.65;62.98;100306.28;5064399;28;19974;-42
2023/01/05 05:32:54;;;;;;;;;;;;;;;10.35;63.87;100279.97;5064318;28;19966;-42
2023/01/05 05:35:19;;;;;;;;;;;;;;;10.60;62.77;100300.31;5060967;28;19958;-42
2023/01/05 05:37:44;;;;;;;;;;;;;;;10.68;62.54;100312.25;5064782;28;19924;-42
2023/01/05 05:40:10;;;;;;;;;;;;;;;11.00;61.89;100318.75;5065171;28;19931;-42
2023/01/05 05:42:35;;;;;;;;;;;;;;;10.89;61.21;100289.69;5068017;28;19920;-42
2023/01/05 05:45:00;;;;;;;;;;;;;;;10.74;60.20;100262.41;5069295;28;20968;-42
2023/01/05 05:47:25;;;;;;;;;;;;;;;10.51;60.43;100264.38;5067869;28;20329;-42
2023/01/05 05:49:51;;;;;;;;;;;;;;;10.54;60.22;100269.50;5068481;28;19939;-41
2023/01/05 05:52:16;;;;;;;;;;;;;;;10.55;60.35;100302.97;5067736;28;19926;-42
2023/01/05 05:54:41;;;;;;;;;;;;;;;10.43;62.57;100313.41;5069069;28;19923;-42
2023/01/05 05:57:06;;;;;;;;;;;;;;;10.68;62.61;100350.06;5068117;28;19928;-42
2023/01/05 05:59:31;;;;;;;;;;;;;;;10.57;64.09;100367.34;5068209;28;20376;-42
2023/01/05 06:01:57;;;;;;;;;;;;;;;10.16;66.49;100347.94;5068674;28;20376;-42
2023/01/05 06:04:22;;;;;;;;;;;;;;;10.58;65.57;100402.53;5067255;28;20592;-42
2023/01/05 06:06:47;;;;;;;;;;;;;;;10.39;67.33;100400.13;5066117;28;19940;-42
2023/01/05 06:09:12;;;;;;;;;;;;;;;10.53;68.13;100427.47;5066751;28;19977;-42
2023/01/05 06:11:38;;;;;;;;;;;;;;;10.85;67.14;100446.06;5068140;28;19916;-42
2023/01/05 06:14:03;;;;;;;;;;;;;;;10.56;68.32;100420.59;5068786;28;20034;-42
2023/01/05 06:16:28;;;;;;;;;;;;;;;10.78;67.30;100434.09;5066873;28;20047;-42
2023/01/05 06:18:53;;;;;;;;;;;;;;;10.69;68.13;100421.31;5067570;28;20325;-42
2023/01/05 06:21:20;;;;;;;;;;;;;;;10.52;68.10;100406.03;5067142;28;19916;-42
2023/01/05 06:23:46;;;;;;;;;;;;;;;10.57;67.39;100424.88;5056423;28;19920;-42
2023/01/05 06:26:11;;;;;;;;;;;;;;;10.69;67.36;100423.88;5069317;28;19916;-42
2023/01/05 06:28:36;;;;;;;;;;;;;;;10.45;67.45;100430.97;5065512;28;19990;-42
2023/01/05 06:31:01;;;;;;;;;;;;;;;10.53;67.90;100435.22;5058014;28;19962;-42
2023/01/05 06:33:27;;;;;;;;;;;;;;;10.53;68.88;100463.53;5066434;28;19927;-42
2023/01/05 06:35:52;;;;;;;;;;;;;;;10.54;69.71;100478.16;5067187;28;20031;-42
2023/01/05 06:38:17;;;;;;;;;;;;;;;10.71;69.28;100486.56;5067692;28;19920;-42
2023/01/05 06:40:44;;;;;;;;;;;;;;;10.71;69.60;100486.56;5067121;28;19994;-42
2023/01/05 06:43:10;;;;;;;;;;;;;;;10.50;70.26;100476.47;5068361;28;19974;-42
2023/01/05 06:45:36;;;;;;;;;;;;;;;10.43;71.03;100479.06;5067797;28;20054;-42
2023/01/05 06:48:01;;;;;;;;;;;;;;;10.51;71.35;100491.88;5067012;28;19924;-42
2023/01/05 06:50:29;;;;;;;;;;;;;;;10.49;72.11;100501.38;5067276;28;19924;-42
2023/01/05 06:52:54;;;;;;;;;;;;;;;10.30;72.46;100498.06;5066342;28;19943;-42
2023/01/05 06:55:20;;;;;;;;;;;;;;;10.41;73.07;100516.00;5067357;28;20308;-42
2023/01/05 06:57:46;;;;;;;;;;;;;;;10.22;74.62;100525.56;5066417;28;20008;-42
2023/01/05 07:00:11;;;;;;;;;;;;;;;10.37;75.17;100535.75;5067094;28;20783;-42
2023/01/05 07:02:37;;;;;;;;;;;;;;;10.13;77.46;100541.91;5067506;28;19931;-42
2023/01/05 07:05:02;;;;;;;;;;;;;;;10.16;79.65;100577.06;5067080;28;19947;-42
2023/01/05 07:07:27;;;;;;;;;;;;;;;10.40;80.72;100623.34;5065017;28;19916;-42
2023/01/05 07:09:52;;;;;;;;;;;;;;;10.38;82.53;100632.78;5066489;28;19917;-42
2023/01/05 07:12:18;;;;;;;;;;;;;;;10.33;83.58;100647.41;5065663;28;19920;-42
2023/01/05 07:14:43;;;;;;;;;;;;;;;10.70;84.07;100685.84;5066187;28;19927;-43
2023/01/05 07:17:08;;;;;;;;;;;;;;;11.23;83.96;100714.72;5065323;28;20596;-42
2023/01/05 07:19:33;;;;;;;;;;;;;;;10.92;83.08;100657.38;5065353;28;20738;-42
2023/01/05 07:21:59;;;;;;;;;;;;;;;10.93;80.95;100634.16;5065075;28;19920;-42
2023/01/05 07:24:24;;;;;;;;;;;;;;;10.45;80.73;100600.97;5064684;28;20090;-42
2023/01/05 07:26:49;;;;;;;;;;;;;;;11.39;78.89;100645.84;5066542;28;20018;-42
2023/01/05 07:29:15;;;;;;;;;;;;;;;10.61;79.39;100569.97;5064024;28;19977;-42
2023/01/05 07:31:40;;;;;;;;;;;;;;;10.86;77.24;100597.25;5066432;28;19921;-42
2023/01/05 07:34:06;;;;;;;;;;;;;;;11.22;75.69;100617.59;5063706;28;19989;-42
2023/01/05 07:36:32;;;;;;;;;;;;;;;10.98;75.58;100575.69;5065444;28;19959;-42
2023/01/05 07:38:57;;;;;;;;;;;;;;;11.06;74.14;100575.59;5064910;28;19924;-42
2023/01/05 07:41:22;;;;;;;;;;;;;;;10.72;73.56;100552.72;5065204;28;19921;-42
2023/01/05 07:43:48;;;;;;;;;;;;;;;10.65;74.74;100571.63;5064388;28;19982;-43
2023/01/05 07:46:14;;;;;;;;;;;;;;;10.84;73.42;100574.94;5064889;28;19920;-42
2023/01/05 07:48:40;;;;;;;;;;;;;;;11.08;72.18;100586.78;5065030;28;20731;-42
2023/01/05 07:51:05;;;;;;;;;;;;;;;11.41;69.22;100595.09;5065884;28;19927;-42
2023/01/05 07:53:31;;;;;;;;;;;;;;;11.54;67.22;100593.22;5065674;28;19955;-42
2023/01/05 07:55:57;;;;;;;;;;;;;;;11.25;65.24;100556.53;5064455;28;20019;-42
2023/01/05 07:58:22;;;;;;;;;;;;;;;11.48;62.83;100539.97;5064386;28;20015;-42
2023/01/05 08:00:47;;;;;;;;;;;;;;;11.66;57.59;100550.09;5064109;28;20392;-42
2023/01/05 08:03:14;;;;;;;;;;;;;;;11.26;58.48;100501.50;5064901;28;19927;-42
2023/01/05 08:05:39;;;;;;;;;;;;;;;11.52;55.94;100515.84;5065095;28;19995;-42
2023/01/05 08:08:04;;;;;;;;;;;;;;;11.52;54.80;100505.53;5065215;28;20011;-42
2023/01/05 08:10:30;;;;;;;;;;;;;;;10.98;57.15;100462.25;5053999;28;19920;-42
2023/01/05 08:15:49;;;;;;;;;;;;;;;11.15;54.40;100468.97;5064711;28;20351;-42
2023/01/05 08:18:15;;;;;;;;;;;;;;;10.92;55.67;100469.19;5065066;28;19969;-42
2023/01/05 08:20:40;;;;;;;;;;;;;;;11.21;54.51;100494.69;5065184;28;19920;-42
2023/01/05 08:23:05;;;;;;;;;;;;;;;11.66;52.26;100521.69;5064888;28;20639;-42
2023/01/05 08:25:30;;;;;;;;;;;;;;;11.33;53.65;100488.53;5065247;28;20637;-42
2023/01/05 08:27:56;;;;;;;;;;;;;;;11.54;52.67;100488.31;5063609;28;20881;-41
2023/01/05 08:30:21;;;;;;;;;;;;;;;11.16;53.87;100456.06;5065146;28;19921;-41
2023/01/05 08:32:46;;;;;;;;;;;;;;;11.47;52.46;100484.06;5064645;28;20027;-41
2023/01/05 08:35:11;;;;;;;;;;;;;;;11.28;53.39;100468.81;5065548;28;20978;-41
2023/01/05 08:37:38;;;;;;;;;;;;;;;11.38;52.42;100491.91;5064006;28;19924;-41
2023/01/05 08:40:04;;;;;;;;;;;;;;;11.49;51.94;100500.38;5065330;28;19927;-41
2023/01/05 08:42:29;;;;;;;;;;;;;;;11.30;52.90;100473.97;5063737;28;19936;-41
2023/01/05 08:44:54;;;;;;;;;;;;;;;11.19;52.95;100478.38;5064029;28;19924;-41
2023/01/05 08:47:19;;;;;;;;;;;;;;;11.62;51.62;100486.47;5066552;28;20372;-40
2023/01/05 08:49:46;;;;;;;;;;;;;;;11.39;52.43;100470.44;5063628;28;19913;-42
2023/01/05 08:52:11;;;;;;;;;;;;;;;11.54;51.01;100478.00;5065332;28;19912;-41
2023/01/05 08:54:36;;;;;;;;;;;;;;;11.68;50.90;100486.41;5063699;28;19928;-41
2023/01/05 08:57:01;;;;;;;;;;;;;;;11.36;52.11;100473.03;5064480;28;19931;-41
2023/01/05 08:59:26;;;;;;;;;;;;;;;11.25;51.70;100481.75;5064500;28;19927;-41
2023/01/05 09:01:52;;;;;;;;;;;;;;;11.44;51.03;100487.53;5063316;28;19920;-41
2023/01/05 09:04:17;;;;;;;;;;;;;;;11.57;50.92;100482.25;5064421;28;20523;-41
2023/01/05 09:06:42;;;;;;;;;;;;;;;11.35;52.13;100471.31;5062392;28;20815;-41
2023/01/05 09:09:07;;;;;;;;;;;;;;;11.13;52.23;100458.69;5063306;28;19916;-41
2023/01/05 09:11:36;;;;;;;;;;;;;;;11.26;51.51;100488.59;5064496;28;19920;-41
2023/01/05 09:14:01;;;;;;;;;;;;;;;11.14;51.81;100504.22;5066645;28;19916;-41
2023/01/05 09:16:28;;;;;;;;;;;;;;;10.96;53.53;100514.72;5069651;28;19938;-40
2023/01/05 09:18:53;;;;;;;;;;;;;;;10.89;54.80;100519.91;5066659;28;20296;-42
2023/01/05 09:21:19;;;;;;;;;;;;;;;11.22;54.65;100566.91;5066389;28;19922;-41
2023/01/05 09:23:44;;;;;;;;;;;;;;;11.54;54.92;100586.34;5067762;28;19923;-41
2023/01/05 09:26:11;;;;;;;;;;;;;;;11.15;55.73;100552.31;5068090;28;20469;-41
2023/01/05 09:28:36;;;;;;;;;;;;;;;11.87;52.00;100585.13;5066171;28;20281;-41
2023/01/05 09:31:12;;;;;;;;;;;;;;;11.54;52.72;100552.81;5067597;28;19923;-41
2023/01/05 09:33:37;;;;;;;;;;;;;;;11.71;51.69;100563.78;5067288;28;20005;-41
2023/01/05 09:36:03;;;;;;;;;;;;;;;11.27;52.40;100541.91;5068326;28;20389;-41
2023/01/05 09:38:28;;;;;;;;;;;;;;;11.45;51.62;100555.50;5067203;28;19924;-41
2023/01/05 09:40:54;;;;;;;;;;;;;;;11.35;52.28;100554.72;5069099;28;19963;-41
2023/01/05 09:43:24;;;;;;;;;;;;;;;11.63;51.30;100560.44;5065559;28;19942;-41
2023/01/05 09:45:50;;;;;;;;;;;;;;;11.39;51.50;100534.91;5065811;28;19959;-41
2023/01/05 09:48:15;;;;;;;;;;;;;;;11.33;51.45;100534.97;5066827;28;20031;-41
2023/01/05 09:50:41;;;;;;;;;;;;;;;11.43;51.16;100546.91;5065710;28;19916;-41
2023/01/05 09:53:07;;;;;;;;;;;;;;;11.47;51.16;100533.09;5067602;28;19924;-41
2023/01/05 09:55:33;;;;;;;;;;;;;;;11.44;50.77;100533.13;5056726;28;19952;-41
2023/01/05 09:58:01;;;;;;;;;;;;;;;11.75;49.57;100563.75;5066812;28;19924;-41
2023/01/05 10:00:26;;;;;;;;;;;;;;;11.60;50.03;100544.13;5066128;28;19917;-41
2023/01/05 10:03:00;;;;;;;;;;;;;;;11.15;51.81;100521.38;5065737;28;19926;-41
2023/01/05 10:05:25;;;;;;;;;;;;;;;11.29;50.77;100550.50;5065890;28;19927;-41
2023/01/05 10:07:52;;;;;;;;;;;;;;;11.77;49.14;100593.84;5064929;28;19921;-41
2023/01/05 10:10:41;;;;;;;;;;;;;;;11.49;50.71;100557.16;5062390;28;20297;-41
2023/01/05 10:13:06;;;;;;;;;;;;;;;11.85;48.91;100573.09;5066285;28;19919;-41
2023/01/05 10:15:33;;;;;;;;;;;;;;;11.61;49.23;100562.19;5065768;28;19916;-41
2023/01/05 10:17:59;;;;;;;;;;;;;;;11.75;48.67;100568.94;5066477;28;19924;-41
2023/01/05 10:20:27;;;;;;;;;;;;;;;11.81;48.28;100564.50;5064344;28;20334;-41
2023/01/05 10:23:01;;;;;;;;;;;;;;;11.69;48.11;100539.72;5067795;28;19991;-41
2023/01/05 10:25:36;;;;;;;;;;;;;;;11.52;48.91;100527.03;5065718;28;19924;-41
2023/01/05 10:28:19;;;;;;;;;;;;;;;11.54;48.73;100528.72;5067860;28;20006;-42
2023/01/05 10:30:48;;;;;;;;;;;;;;;11.36;49.31;100524.59;5072986;28;19979;-44
2023/01/05 10:33:42;;;;;;;;;;;;;;;11.50;48.47;100533.06;5067670;28;19920;-41
2023/01/05 10:36:12;;;;;;;;;;;;;;;11.64;48.14;100551.81;5053904;28;19927;-41
2023/01/05 10:38:53;;;;;;;;;;;;;;;11.73;47.86;100546.56;5064094;28;19934;-41
2023/01/05 10:41:28;;;;;;;;;;;;;;;11.65;48.44;100548.34;5065980;28;19951;-41
2023/01/05 10:43:53;;;;;;;;;;;;;;;11.98;47.07;100556.63;5065212;28;19932;-41
2023/01/05 10:46:20;;;;;;;;;;;;;;;11.98;47.04;100545.44;5066831;28;19920;-41
2023/01/05 10:48:45;;;;;;;;;;;;;;;12.00;46.51;100544.53;5066086;28;19920;-41
2023/01/05 10:51:10;;;;;;;;;;;;;;;12.04;46.88;100525.56;5065635;28;19922;-41
2023/01/05 10:53:37;;;;;;;;;;;;;;;11.87;48.23;100502.53;5068270;28;19920;-41
2023/01/05 10:56:05;;;;;;;;;;;;;;;11.68;49.01;100481.25;5065666;28;19932;-41
2023/01/05 10:58:31;;;;;;;;;;;;;;;11.66;47.86;100493.31;5066887;28;19998;-41
2023/01/05 11:00:58;;;;;;;;;;;;;;;11.92;47.12;100510.22;5057050;28;19972;-41
2023/01/05 11:03:26;;;;;;;;;;;;;;;12.30;45.63;100532.09;5066808;28;20014;-41
2023/01/05 11:05:51;;;;;;;;;;;;;;;11.65;48.28;100483.84;5066159;28;20048;-40
2023/01/05 11:08:21;;;;;;;;;;;;;;;11.65;48.14;100491.59;5063165;28;19924;-41
2023/01/05 11:10:59;;;;;;;;;;;;;;;11.78;47.57;100496.59;5065160;28;19926;-41
2023/01/05 11:13:24;;;;;;;;;;;;;;;11.96;47.34;100491.22;5061004;28;19920;-43
2023/01/05 11:15:52;;;;;;;;;;;;;;;11.73;49.31;100460.53;5056121;28;19919;-41
2023/01/05 11:18:20;;;;;;;;;;;;;;;11.78;48.34;100466.47;5063326;28;19929;-41
2023/01/05 11:21:05;;;;;;;;;;;;;;;11.93;48.12;100470.63;5063344;28;19919;-40
2023/01/05 11:23:34;;;;;;;;;;;;;;;12.07;47.12;100468.69;5064952;28;19929;-40
2023/01/05 11:26:14;;;;;;;;;;;;;;;11.78;48.79;100445.00;5065255;28;19930;-41
2023/01/05 11:28:45;;;;;;;;;;;;;;;11.72;49.31;100436.47;5063337;28;19947;-41
2023/01/05 11:31:10;;;;;;;;;;;;;;;11.83;48.93;100440.59;5063305;28;19977;-40
2023/01/05 11:33:38;;;;;;;;;;;;;;;11.45;49.88;100435.09;5064742;28;21101;-42
2023/01/05 11:36:03;;;;;;;;;;;;;;;11.67;48.84;100439.97;5063412;28;19920;-42
2023/01/05 11:38:29;;;;;;;;;;;;;;;11.90;48.46;100448.25;5063529;28;20371;-42
2023/01/05 11:40:57;;;;;;;;;;;;;;;11.85;50.10;100431.13;5064669;28;19924;-42
2023/01/05 11:43:26;;;;;;;;;;;;;;;11.79;50.38;100421.75;5062368;28;19990;-42
2023/01/05 11:45:56;;;;;;;;;;;;;;;11.65;51.40;100403.00;5064887;28;20722;-42
2023/01/05 11:48:26;;;;;;;;;;;;;;;11.88;51.95;100394.97;5062760;28;19928;-42
2023/01/05 11:50:53;;;;;;;;;;;;;;;11.72;53.28;100371.94;5064679;28;20426;-42
2023/01/05 11:53:27;;;;;;;;;;;;;;;11.68;53.64;100366.84;5065495;28;19927;-42
2023/01/05 11:56:01;;;;;;;;;;;;;;;11.83;54.14;100374.34;5063850;28;20011;-42
2023/01/05 11:58:46;;;;;;;;;;;;;;;12.11;53.28;100381.69;5065646;28;20416;-42
2023/01/05 12:01:11;;;;;;;;;;;;;;;12.06;54.40;100362.84;5065224;28;19930;-42
2023/01/05 12:03:42;;;;;;;;;;;;;;;12.01;56.98;100339.69;5065509;28;19920;-42
2023/01/05 12:06:22;;;;;;;;;;;;;;;11.71;59.71;100310.88;5065804;28;20025;-42
2023/01/05 12:08:51;;;;;;;;;;;;;;;12.00;57.87;100319.91;5061705;28;20019;-42
2023/01/05 12:11:16;;;;;;;;;;;;;;;11.86;61.35;100294.28;5070663;28;19956;-42
2023/01/05 12:14:00;;;;;;;;;;;;;;;12.03;59.16;100295.78;5064889;28;20340;-42
2023/01/05 12:16:28;;;;;;;;;;;;;;;11.62;61.90;100284.38;5065207;28;19924;-42
2023/01/05 12:19:08;;;;;;;;;;;;;;;11.83;60.83;100288.31;5063662;28;20111;-42
2023/01/05 12:21:37;;;;;;;;;;;;;;;11.71;60.78;100289.38;5064058;28;19920;-42
2023/01/05 12:24:25;;;;;;;;;;;;;;;11.64;62.03;100291.19;5063445;28;20388;-42
2023/01/05 12:26:50;;;;;;;;;;;;;;;11.98;59.97;100297.59;5061844;28;19963;-40
2023/01/05 12:29:27;;;;;;;;;;;;;;;11.58;61.50;100299.03;5066464;28;20121;-42
2023/01/05 12:32:11;;;;;;;;;;;;;;;12.54;58.11;100329.28;5065232;28;19983;-41
2023/01/05 12:34:44;;;;;;;;;;;;;;;12.15;63.37;100274.88;5064995;28;19931;-42
2023/01/05 12:37:25;;;;;;;;;;;;;;;12.17;62.84;100272.28;5064936;28;21165;-42
2023/01/05 12:39:59;;;;;;;;;;;;;;;12.05;63.08;100275.94;5062847;28;20452;-42
2023/01/05 12:42:43;;;;;;;;;;;;;;;12.51;60.59;100294.00;5061723;28;20567;-42
2023/01/05 12:45:18;;;;;;;;;;;;;;;12.11;65.32;100255.16;5066942;28;19920;-42
2023/01/05 12:47:43;;;;;;;;;;;;;;;12.03;64.62;100272.53;5064786;28;19927;-41
2023/01/05 12:50:18;;;;;;;;;;;;;;;12.63;62.17;100297.25;5069311;28;19915;-45
2023/01/05 12:52:45;;;;;;;;;;;;;;;12.10;63.33;100282.72;5072111;28;20474;-45
2023/01/05 12:55:14;;;;;;;;;;;;;;;12.20;63.34;100292.88;5068789;28;19926;-45
2023/01/05 12:57:40;;;;;;;;;;;;;;;12.79;61.48;100308.97;5073988;28;20568;-45
2023/01/05 13:00:12;;;;;;;;;;;;;;;12.50;62.80;100292.31;5072023;28;19927;-44
2023/01/05 13:02:39;;;;;;;;;;;;;;;12.40;64.79;100275.28;5072471;28;19920;-44
2023/01/05 13:05:07;;;;;;;;;;;;;;;11.99;70.48;100219.25;5072414;28;19923;-44
2023/01/05 13:07:37;;;;;;;;;;;;;;;12.08;66.47;100252.63;5072322;28;19928;-44
2023/01/05 13:10:04;;;;;;;;;;;;;;;12.50;66.63;100265.66;5072318;28;19963;-44
2023/01/05 13:12:30;;;;;;;;;;;;;;;12.71;67.55;100254.03;5068726;28;20014;-44
2023/01/05 13:14:58;;;;;;;;;;;;;;;12.06;72.84;100206.19;5068251;28;19923;-44